Deeson, Mississippi
Current Conditions -  °F | °C
As of 11:55 PM on Thursday 27 Nov 2014 (Local Time) from KRNV Reporting Station
Clear Clear  
Wind Chill: 33°   Ceiling: Unl
Heat Index: 33°   Visibility: 10mi
Dew Point: 32°   Wind: 0mph
Humidity: 97%   Direction: NA
Pressure: 30.46"   Gusts: NA
Location:  34.0609°N, 90.7985°W
Report Text: KRNV 280555Z AUTO 00000KT 10SM CLR 00/00 A3046 RMK AO2 T00040000 10045 20004 400760004
Loading
Personal Weather Stations






























Interactive Weather Map New forecast layout! Learn more

10-Day Weather Forecast

Advertisements
Track Severe Weather on mobile